sensor_id;sensor_type;location;lat;lon;timestamp;temperature;humidity
52621;DHT22;38515;53.160;6.990;2023-05-07T00:01:56;9.60;99.90
52621;DHT22;38515;53.160;6.990;2023-05-07T00:04:23;10.40;99.90
52621;DHT22;38515;53.160;6.990;2023-05-07T00:06:48;11.30;99.90
52621;DHT22;38515;53.160;6.990;2023-05-07T00:09:15;9.40;99.90
52621;DHT22;38515;53.160;6.990;2023-05-07T00:11:42;10.80;99.90
52621;DHT22;38515;53.160;6.990;2023-05-07T00:14:07;9.60;99.90
52621;DHT22;38515;53.160;6.990;2023-05-07T00:16:33;10.00;99.90
52621;DHT22;38515;53.160;6.990;2023-05-07T00:18:59;9.50;99.90
52621;DHT22;38515;53.160;6.990;2023-05-07T00:21:25;11.10;99.90
52621;DHT22;38515;53.160;6.990;2023-05-07T00:23:54;11.10;99.90
52621;DHT22;38515;53.160;6.990;2023-05-07T00:26:20;10.40;99.90
52621;DHT22;38515;53.160;6.990;2023-05-07T00:28:46;10.10;99.90
52621;DHT22;38515;53.160;6.990;2023-05-07T00:31:12;9.60;99.90
52621;DHT22;38515;53.160;6.990;2023-05-07T00:33:38;10.20;99.90
52621;DHT22;38515;53.160;6.990;2023-05-07T00:36:04;11.30;99.90
52621;DHT22;38515;53.160;6.990;2023-05-07T00:38:30;9.40;99.90
52621;DHT22;38515;53.160;6.990;2023-05-07T00:40:56;11.00;99.90
52621;DHT22;38515;53.160;6.990;2023-05-07T00:43:22;11.70;99.90
52621;DHT22;38515;53.160;6.990;2023-05-07T00:45:48;11.50;99.90
52621;DHT22;38515;53.160;6.990;2023-05-07T00:48:15;9.90;99.90
52621;DHT22;38515;53.160;6.990;2023-05-07T00:50:41;10.90;99.90
52621;DHT22;38515;53.160;6.990;2023-05-07T00:53:07;9.60;99.90
52621;DHT22;38515;53.160;6.990;2023-05-07T00:55:33;9.70;99.90
52621;DHT22;38515;53.160;6.990;2023-05-07T00:58:00;10.80;99.90
52621;DHT22;38515;53.160;6.990;2023-05-07T01:00:26;9.90;99.90
52621;DHT22;38515;53.160;6.990;2023-05-07T01:02:52;10.90;99.90
52621;DHT22;38515;53.160;6.990;2023-05-07T01:05:20;11.20;99.90
52621;DHT22;38515;53.160;6.990;2023-05-07T01:07:47;11.10;99.90
52621;DHT22;38515;53.160;6.990;2023-05-07T01:10:14;9.70;99.90
52621;DHT22;38515;53.160;6.990;2023-05-07T01:12:40;10.90;99.90
52621;DHT22;38515;53.160;6.990;2023-05-07T01:15:08;10.10;99.90
52621;DHT22;38515;53.160;6.990;2023-05-07T01:17:36;11.50;99.90
52621;DHT22;38515;53.160;6.990;2023-05-07T01:20:02;9.90;99.90
52621;DHT22;38515;53.160;6.990;2023-05-07T01:22:35;10.60;99.90
52621;DHT22;38515;53.160;6.990;2023-05-07T01:25:05;9.90;99.90
52621;DHT22;38515;53.160;6.990;2023-05-07T01:27:32;10.50;99.90
52621;DHT22;38515;53.160;6.990;2023-05-07T01:29:59;11.00;99.90
52621;DHT22;38515;53.160;6.990;2023-05-07T01:32:32;10.50;99.90
52621;DHT22;38515;53.160;6.990;2023-05-07T01:35:00;10.90;99.90
52621;DHT22;38515;53.160;6.990;2023-05-07T01:37:27;11.40;99.90
52621;DHT22;38515;53.160;6.990;2023-05-07T01:39:53;9.90;99.90
52621;DHT22;38515;53.160;6.990;2023-05-07T01:42:20;11.20;99.90
52621;DHT22;38515;53.160;6.990;2023-05-07T01:44:46;9.90;99.90
52621;DHT22;38515;53.160;6.990;2023-05-07T01:47:12;11.30;99.90
52621;DHT22;38515;53.160;6.990;2023-05-07T01:49:39;11.10;99.90
52621;DHT22;38515;53.160;6.990;2023-05-07T01:52:06;9.90;99.90
52621;DHT22;38515;53.160;6.990;2023-05-07T01:54:31;11.10;99.90
52621;DHT22;38515;53.160;6.990;2023-05-07T01:56:57;10.00;99.90
52621;DHT22;38515;53.160;6.990;2023-05-07T01:59:23;11.00;99.90
52621;DHT22;38515;53.160;6.990;2023-05-07T02:01:49;10.10;99.90
52621;DHT22;38515;53.160;6.990;2023-05-07T02:04:15;9.90;99.90
52621;DHT22;38515;53.160;6.990;2023-05-07T02:06:41;10.70;99.90
52621;DHT22;38515;53.160;6.990;2023-05-07T02:09:06;11.10;99.90
52621;DHT22;38515;53.160;6.990;2023-05-07T02:11:34;9.70;99.90
52621;DHT22;38515;53.160;6.990;2023-05-07T02:14:00;10.60;99.90
52621;DHT22;38515;53.160;6.990;2023-05-07T02:16:26;9.70;99.90
52621;DHT22;38515;53.160;6.990;2023-05-07T02:18:52;11.20;99.90
52621;DHT22;38515;53.160;6.990;2023-05-07T02:21:18;10.70;99.90
52621;DHT22;38515;53.160;6.990;2023-05-07T02:23:43;9.60;99.90
52621;DHT22;38515;53.160;6.990;2023-05-07T02:26:10;9.50;99.90
52621;DHT22;38515;53.160;6.990;2023-05-07T02:28:36;9.90;99.90
52621;DHT22;38515;53.160;6.990;2023-05-07T02:31:03;10.10;99.90
52621;DHT22;38515;53.160;6.990;2023-05-07T02:33:29;9.80;99.90
52621;DHT22;38515;53.160;6.990;2023-05-07T02:35:55;10.80;99.90
52621;DHT22;38515;53.160;6.990;2023-05-07T02:38:22;10.90;99.90
52621;DHT22;38515;53.160;6.990;2023-05-07T02:40:49;10.80;99.90
52621;DHT22;38515;53.160;6.990;2023-05-07T02:43:14;9.50;99.90
52621;DHT22;38515;53.160;6.990;2023-05-07T02:45:40;9.80;99.90
52621;DHT22;38515;53.160;6.990;2023-05-07T02:48:06;9.40;99.90
52621;DHT22;38515;53.160;6.990;2023-05-07T02:50:32;9.90;99.90
52621;DHT22;38515;53.160;6.990;2023-05-07T02:52:58;10.60;99.90
52621;DHT22;38515;53.160;6.990;2023-05-07T02:55:24;9.80;99.90
52621;DHT22;38515;53.160;6.990;2023-05-07T02:57:50;9.40;99.90
52621;DHT22;38515;53.160;6.990;2023-05-07T03:00:19;9.70;99.90
52621;DHT22;38515;53.160;6.990;2023-05-07T03:02:45;10.50;99.90
52621;DHT22;38515;53.160;6.990;2023-05-07T03:05:11;10.40;99.90
52621;DHT22;38515;53.160;6.990;2023-05-07T03:07:37;10.30;99.90
52621;DHT22;38515;53.160;6.990;2023-05-07T03:10:04;10.00;99.90
52621;DHT22;38515;53.160;6.990;2023-05-07T03:12:31;9.40;99.90
52621;DHT22;38515;53.160;6.990;2023-05-07T03:14:57;10.50;99.90
52621;DHT22;38515;53.160;6.990;2023-05-07T03:17:22;10.50;99.90
52621;DHT22;38515;53.160;6.990;2023-05-07T03:19:48;10.00;99.90
52621;DHT22;38515;53.160;6.990;2023-05-07T03:22:14;9.80;99.90
52621;DHT22;38515;53.160;6.990;2023-05-07T03:24:40;10.40;99.90
52621;DHT22;38515;53.160;6.990;2023-05-07T03:27:06;9.60;99.90
52621;DHT22;38515;53.160;6.990;2023-05-07T03:29:31;9.50;99.90
52621;DHT22;38515;53.160;6.990;2023-05-07T03:31:57;9.80;99.90
52621;DHT22;38515;53.160;6.990;2023-05-07T03:34:23;10.40;99.90
52621;DHT22;38515;53.160;6.990;2023-05-07T03:36:49;9.10;99.90
52621;DHT22;38515;53.160;6.990;2023-05-07T03:39:15;9.80;99.90
52621;DHT22;38515;53.160;6.990;2023-05-07T03:41:41;10.00;99.90
52621;DHT22;38515;53.160;6.990;2023-05-07T03:44:07;9.20;99.90
52621;DHT22;38515;53.160;6.990;2023-05-07T03:46:33;9.30;99.90
52621;DHT22;38515;53.160;6.990;2023-05-07T03:48:59;9.00;99.90
52621;DHT22;38515;53.160;6.990;2023-05-07T03:51:25;10.40;99.90
52621;DHT22;38515;53.160;6.990;2023-05-07T03:53:51;8.90;99.90
52621;DHT22;38515;53.160;6.990;2023-05-07T03:56:19;10.10;99.90
52621;DHT22;38515;53.160;6.990;2023-05-07T03:58:45;10.00;99.90
52621;DHT22;38515;53.160;6.990;2023-05-07T04:01:11;9.00;99.90
52621;DHT22;38515;53.160;6.990;2023-05-07T04:03:37;10.10;99.90
52621;DHT22;38515;53.160;6.990;2023-05-07T04:06:03;9.20;99.90
52621;DHT22;38515;53.160;6.990;2023-05-07T04:08:29;9.10;99.90
52621;DHT22;38515;53.160;6.990;2023-05-07T04:10:56;9.00;99.90
52621;DHT22;38515;53.160;6.990;2023-05-07T04:13:21;9.00;99.90
52621;DHT22;38515;53.160;6.990;2023-05-07T04:15:47;8.90;99.90
52621;DHT22;38515;53.160;6.990;2023-05-07T04:18:15;9.30;99.90
52621;DHT22;38515;53.160;6.990;2023-05-07T04:20:41;9.00;99.90
52621;DHT22;38515;53.160;6.990;2023-05-07T04:23:07;9.30;99.90
52621;DHT22;38515;53.160;6.990;2023-05-07T04:25:33;10.20;99.90
52621;DHT22;38515;53.160;6.990;2023-05-07T04:27:59;9.10;99.90
52621;DHT22;38515;53.160;6.990;2023-05-07T04:30:25;9.70;99.90
52621;DHT22;38515;53.160;6.990;2023-05-07T04:32:51;9.10;99.90
52621;DHT22;38515;53.160;6.990;2023-05-07T04:35:17;8.70;99.90
52621;DHT22;38515;53.160;6.990;2023-05-07T04:37:43;10.00;99.90
52621;DHT22;38515;53.160;6.990;2023-05-07T04:40:09;9.40;99.90
52621;DHT22;38515;53.160;6.990;2023-05-07T04:42:35;8.70;99.90
52621;DHT22;38515;53.160;6.990;2023-05-07T04:45:02;9.30;99.90
52621;DHT22;38515;53.160;6.990;2023-05-07T04:47:28;9.30;99.90
52621;DHT22;38515;53.160;6.990;2023-05-07T04:49:53;10.60;99.90
52621;DHT22;38515;53.160;6.990;2023-05-07T04:52:19;8.60;99.90
52621;DHT22;38515;53.160;6.990;2023-05-07T04:54:45;10.30;99.90
52621;DHT22;38515;53.160;6.990;2023-05-07T04:57:11;10.00;99.90
52621;DHT22;38515;53.160;6.990;2023-05-07T04:59:37;10.40;99.90
52621;DHT22;38515;53.160;6.990;2023-05-07T05:02:03;10.30;99.90
52621;DHT22;38515;53.160;6.990;2023-05-07T05:04:30;10.60;99.90
52621;DHT22;38515;53.160;6.990;2023-05-07T05:06:56;8.90;99.90
52621;DHT22;38515;53.160;6.990;2023-05-07T05:09:22;10.50;99.90
52621;DHT22;38515;53.160;6.990;2023-05-07T05:11:47;10.00;99.90
52621;DHT22;38515;53.160;6.990;2023-05-07T05:14:13;10.60;99.90
52621;DHT22;38515;53.160;6.990;2023-05-07T05:16:39;10.50;99.90
52621;DHT22;38515;53.160;6.990;2023-05-07T05:19:05;10.50;99.90
52621;DHT22;38515;53.160;6.990;2023-05-07T05:21:31;10.00;99.90
52621;DHT22;38515;53.160;6.990;2023-05-07T05:23:57;10.20;99.90
52621;DHT22;38515;53.160;6.990;2023-05-07T05:26:23;9.20;99.90
52621;DHT22;38515;53.160;6.990;2023-05-07T05:28:49;8.40;99.90
52621;DHT22;38515;53.160;6.990;2023-05-07T05:31:16;9.90;99.90
52621;DHT22;38515;53.160;6.990;2023-05-07T05:33:42;10.00;99.90
52621;DHT22;38515;53.160;6.990;2023-05-07T05:36:11;10.30;99.90
52621;DHT22;38515;53.160;6.990;2023-05-07T05:38:39;9.30;99.90
52621;DHT22;38515;53.160;6.990;2023-05-07T05:41:05;10.30;99.90
52621;DHT22;38515;53.160;6.990;2023-05-07T05:43:31;10.30;99.90
52621;DHT22;38515;53.160;6.990;2023-05-07T05:45:57;9.10;99.90
52621;DHT22;38515;53.160;6.990;2023-05-07T05:48:23;8.70;99.90
52621;DHT22;38515;53.160;6.990;2023-05-07T05:50:49;10.20;99.90
52621;DHT22;38515;53.160;6.990;2023-05-07T05:53:15;10.30;99.90
52621;DHT22;38515;53.160;6.990;2023-05-07T05:55:42;9.50;99.90
52621;DHT22;38515;53.160;6.990;2023-05-07T05:58:08;8.70;99.90
52621;DHT22;38515;53.160;6.990;2023-05-07T06:00:34;10.30;99.90
52621;DHT22;38515;53.160;6.990;2023-05-07T06:03:00;9.70;99.90
52621;DHT22;38515;53.160;6.990;2023-05-07T06:05:26;8.60;99.90
52621;DHT22;38515;53.160;6.990;2023-05-07T06:07:52;10.10;99.90
52621;DHT22;38515;53.160;6.990;2023-05-07T06:10:18;10.30;99.90
52621;DHT22;38515;53.160;6.990;2023-05-07T06:12:44;9.80;99.90
52621;DHT22;38515;53.160;6.990;2023-05-07T06:15:10;8.70;99.90
52621;DHT22;38515;53.160;6.990;2023-05-07T06:17:36;9.70;99.90
52621;DHT22;38515;53.160;6.990;2023-05-07T06:20:02;8.80;99.90
52621;DHT22;38515;53.160;6.990;2023-05-07T06:22:28;10.20;99.90
52621;DHT22;38515;53.160;6.990;2023-05-07T06:24:53;9.90;99.90
52621;DHT22;38515;53.160;6.990;2023-05-07T06:27:19;8.70;99.90
52621;DHT22;38515;53.160;6.990;2023-05-07T06:29:47;8.90;99.90
52621;DHT22;38515;53.160;6.990;2023-05-07T06:32:14;9.00;99.90
52621;DHT22;38515;53.160;6.990;2023-05-07T06:34:40;9.10;99.90
52621;DHT22;38515;53.160;6.990;2023-05-07T06:37:07;9.90;99.90
52621;DHT22;38515;53.160;6.990;2023-05-07T06:39:32;10.00;99.90
52621;DHT22;38515;53.160;6.990;2023-05-07T06:42:00;10.00;99.90
52621;DHT22;38515;53.160;6.990;2023-05-07T06:44:27;9.20;99.90
52621;DHT22;38515;53.160;6.990;2023-05-07T06:46:56;10.20;99.90
52621;DHT22;38515;53.160;6.990;2023-05-07T06:49:22;10.00;99.90
52621;DHT22;38515;53.160;6.990;2023-05-07T06:51:48;10.30;99.90
52621;DHT22;38515;53.160;6.990;2023-05-07T06:54:14;9.20;99.90
52621;DHT22;38515;53.160;6.990;2023-05-07T06:56:40;10.30;99.90
52621;DHT22;38515;53.160;6.990;2023-05-07T06:59:06;9.20;99.90
52621;DHT22;38515;53.160;6.990;2023-05-07T07:01:32;10.30;99.90
52621;DHT22;38515;53.160;6.990;2023-05-07T07:03:58;9.60;99.90
52621;DHT22;38515;53.160;6.990;2023-05-07T07:06:24;9.70;99.90
52621;DHT22;38515;53.160;6.990;2023-05-07T07:08:51;9.50;99.90
52621;DHT22;38515;53.160;6.990;2023-05-07T07:11:16;9.60;99.90
52621;DHT22;38515;53.160;6.990;2023-05-07T07:13:42;10.60;99.90
52621;DHT22;38515;53.160;6.990;2023-05-07T07:16:08;9.10;99.90
52621;DHT22;38515;53.160;6.990;2023-05-07T07:18:34;10.30;99.90
52621;DHT22;38515;53.160;6.990;2023-05-07T07:21:01;10.70;99.90
52621;DHT22;38515;53.160;6.990;2023-05-07T07:23:27;10.70;99.90
52621;DHT22;38515;53.160;6.990;2023-05-07T07:25:53;10.60;99.90
52621;DHT22;38515;53.160;6.990;2023-05-07T07:28:21;10.00;99.90
52621;DHT22;38515;53.160;6.990;2023-05-07T07:30:46;10.80;99.90
52621;DHT22;38515;53.160;6.990;2023-05-07T07:33:12;10.90;99.90
52621;DHT22;38515;53.160;6.990;2023-05-07T07:35:38;10.40;99.90
52621;DHT22;38515;53.160;6.990;2023-05-07T07:38:04;10.50;99.90
52621;DHT22;38515;53.160;6.990;2023-05-07T07:40:30;10.60;99.90
52621;DHT22;38515;53.160;6.990;2023-05-07T07:42:56;10.70;99.90
52621;DHT22;38515;53.160;6.990;2023-05-07T07:45:23;10.80;99.90
52621;DHT22;38515;53.160;6.990;2023-05-07T07:47:48;10.90;99.90
52621;DHT22;38515;53.160;6.990;2023-05-07T07:50:14;10.40;99.90
52621;DHT22;38515;53.160;6.990;2023-05-07T07:52:40;10.30;99.90
52621;DHT22;38515;53.160;6.990;2023-05-07T07:55:07;10.20;99.90
52621;DHT22;38515;53.160;6.990;2023-05-07T07:57:33;10.80;99.90
52621;DHT22;38515;53.160;6.990;2023-05-07T07:59:59;11.00;99.90
52621;DHT22;38515;53.160;6.990;2023-05-07T08:02:25;10.40;99.90
52621;DHT22;38515;53.160;6.990;2023-05-07T08:04:50;11.20;99.90
52621;DHT22;38515;53.160;6.990;2023-05-07T08:07:16;11.00;99.90
52621;DHT22;38515;53.160;6.990;2023-05-07T08:09:47;10.50;99.90
52621;DHT22;38515;53.160;6.990;2023-05-07T08:12:13;10.90;99.90
52621;DHT22;38515;53.160;6.990;2023-05-07T08:14:39;10.80;99.90
52621;DHT22;38515;53.160;6.990;2023-05-07T08:17:05;11.30;99.90
52621;DHT22;38515;53.160;6.990;2023-05-07T08:19:31;11.30;99.90
52621;DHT22;38515;53.160;6.990;2023-05-07T08:21:57;10.70;99.90
52621;DHT22;38515;53.160;6.990;2023-05-07T08:24:23;10.70;99.90
52621;DHT22;38515;53.160;6.990;2023-05-07T08:26:49;11.40;99.90
52621;DHT22;38515;53.160;6.990;2023-05-07T08:29:15;11.50;99.90
52621;DHT22;38515;53.160;6.990;2023-05-07T08:31:41;10.80;99.90
52621;DHT22;38515;53.160;6.990;2023-05-07T08:34:07;11.20;99.90
52621;DHT22;38515;53.160;6.990;2023-05-07T08:36:33;10.90;99.90
52621;DHT22;38515;53.160;6.990;2023-05-07T08:38:59;11.50;99.90
52621;DHT22;38515;53.160;6.990;2023-05-07T08:41:25;11.50;99.90
52621;DHT22;38515;53.160;6.990;2023-05-07T08:43:51;10.90;99.90
52621;DHT22;38515;53.160;6.990;2023-05-07T08:46:20;11.40;99.90
52621;DHT22;38515;53.160;6.990;2023-05-07T08:48:50;10.90;99.90
52621;DHT22;38515;53.160;6.990;2023-05-07T08:51:18;11.60;99.90
52621;DHT22;38515;53.160;6.990;2023-05-07T08:53:46;11.50;99.90
52621;DHT22;38515;53.160;6.990;2023-05-07T08:56:14;11.60;99.90
52621;DHT22;38515;53.160;6.990;2023-05-07T08:58:44;11.60;99.90
52621;DHT22;38515;53.160;6.990;2023-05-07T09:01:13;11.60;99.90
52621;DHT22;38515;53.160;6.990;2023-05-07T09:03:39;11.20;99.90
52621;DHT22;38515;53.160;6.990;2023-05-07T09:06:06;11.70;99.90
52621;DHT22;38515;53.160;6.990;2023-05-07T09:08:35;11.80;99.90
52621;DHT22;38515;53.160;6.990;2023-05-07T09:11:02;12.00;99.90
52621;DHT22;38515;53.160;6.990;2023-05-07T09:13:28;11.70;99.90
52621;DHT22;38515;53.160;6.990;2023-05-07T09:15:55;12.10;99.90
52621;DHT22;38515;53.160;6.990;2023-05-07T09:18:23;12.10;99.90
52621;DHT22;38515;53.160;6.990;2023-05-07T09:20:49;11.80;99.90
52621;DHT22;38515;53.160;6.990;2023-05-07T09:23:16;12.20;99.90
52621;DHT22;38515;53.160;6.990;2023-05-07T09:25:42;11.80;99.90
52621;DHT22;38515;53.160;6.990;2023-05-07T09:28:08;12.00;99.90
52621;DHT22;38515;53.160;6.990;2023-05-07T09:30:38;12.20;99.90
52621;DHT22;38515;53.160;6.990;2023-05-07T09:33:04;11.90;99.90
52621;DHT22;38515;53.160;6.990;2023-05-07T09:35:30;12.00;99.90
52621;DHT22;38515;53.160;6.990;2023-05-07T09:37:58;12.10;99.90
52621;DHT22;38515;53.160;6.990;2023-05-07T09:40:25;12.30;99.90
52621;DHT22;38515;53.160;6.990;2023-05-07T09:42:53;12.10;99.90
52621;DHT22;38515;53.160;6.990;2023-05-07T09:45:24;12.60;99.90
52621;DHT22;38515;53.160;6.990;2023-05-07T09:47:53;12.20;99.90
52621;DHT22;38515;53.160;6.990;2023-05-07T09:50:26;12.30;99.90
52621;DHT22;38515;53.160;6.990;2023-05-07T09:52:52;12.40;99.90
52621;DHT22;38515;53.160;6.990;2023-05-07T09:55:19;12.60;99.90
52621;DHT22;38515;53.160;6.990;2023-05-07T09:57:46;12.60;99.90
52621;DHT22;38515;53.160;6.990;2023-05-07T10:00:13;12.80;99.90
52621;DHT22;38515;53.160;6.990;2023-05-07T10:02:42;13.10;99.90
52621;DHT22;38515;53.160;6.990;2023-05-07T10:05:14;13.10;99.90
52621;DHT22;38515;53.160;6.990;2023-05-07T10:07:41;13.20;99.90
52621;DHT22;38515;53.160;6.990;2023-05-07T10:10:07;13.40;99.90
52621;DHT22;38515;53.160;6.990;2023-05-07T10:12:33;13.50;99.90
52621;DHT22;38515;53.160;6.990;2023-05-07T10:15:13;13.70;99.90
52621;DHT22;38515;53.160;6.990;2023-05-07T10:17:40;13.60;99.90
52621;DHT22;38515;53.160;6.990;2023-05-07T10:20:07;13.70;99.90
52621;DHT22;38515;53.160;6.990;2023-05-07T10:22:45;13.70;99.90
52621;DHT22;38515;53.160;6.990;2023-05-07T10:25:18;13.60;99.90
52621;DHT22;38515;53.160;6.990;2023-05-07T10:27:46;13.50;99.90
52621;DHT22;38515;53.160;6.990;2023-05-07T10:33:04;13.60;99.90
52621;DHT22;38515;53.160;6.990;2023-05-07T10:35:42;13.50;99.90
52621;DHT22;38515;53.160;6.990;2023-05-07T10:38:09;13.70;99.90
52621;DHT22;38515;53.160;6.990;2023-05-07T10:40:36;13.70;99.90
52621;DHT22;38515;53.160;6.990;2023-05-07T10:43:03;13.90;99.90
52621;DHT22;38515;53.160;6.990;2023-05-07T10:45:32;14.00;99.90
52621;DHT22;38515;53.160;6.990;2023-05-07T10:50:43;13.90;99.90
52621;DHT22;38515;53.160;6.990;2023-05-07T10:55:48;13.90;99.90
52621;DHT22;38515;53.160;6.990;2023-05-07T10:58:28;13.90;99.90
52621;DHT22;38515;53.160;6.990;2023-05-07T11:01:01;14.20;99.90
52621;DHT22;38515;53.160;6.990;2023-05-07T11:03:28;14.30;99.90
52621;DHT22;38515;53.160;6.990;2023-05-07T11:06:14;14.50;99.90
52621;DHT22;38515;53.160;6.990;2023-05-07T11:11:20;14.40;99.90
52621;DHT22;38515;53.160;6.990;2023-05-07T11:14:05;14.40;99.90
52621;DHT22;38515;53.160;6.990;2023-05-07T11:16:32;14.60;99.90
52621;DHT22;38515;53.160;6.990;2023-05-07T11:18:59;14.60;99.90
52621;DHT22;38515;53.160;6.990;2023-05-07T11:21:43;14.80;99.90
52621;DHT22;38515;53.160;6.990;2023-05-07T11:24:09;14.80;99.90
52621;DHT22;38515;53.160;6.990;2023-05-07T11:26:49;14.80;99.90
52621;DHT22;38515;53.160;6.990;2023-05-07T11:29:20;15.00;99.90
52621;DHT22;38515;53.160;6.990;2023-05-07T11:31:54;14.90;99.90
52621;DHT22;38515;53.160;6.990;2023-05-07T11:34:25;14.70;99.90
52621;DHT22;38515;53.160;6.990;2023-05-07T11:36:52;14.10;99.90
52621;DHT22;38515;53.160;6.990;2023-05-07T11:39:29;14.70;99.90
52621;DHT22;38515;53.160;6.990;2023-05-07T11:41:55;14.80;99.90
52621;DHT22;38515;53.160;6.990;2023-05-07T11:44:21;14.50;99.90
52621;DHT22;38515;53.160;6.990;2023-05-07T11:46:48;14.60;99.90
52621;DHT22;38515;53.160;6.990;2023-05-07T11:49:14;14.50;99.90
52621;DHT22;38515;53.160;6.990;2023-05-07T11:51:41;14.60;99.90
52621;DHT22;38515;53.160;6.990;2023-05-07T11:54:08;14.80;99.90
52621;DHT22;38515;53.160;6.990;2023-05-07T11:56:36;14.80;99.90
52621;DHT22;38515;53.160;6.990;2023-05-07T11:59:03;14.90;99.90
52621;DHT22;38515;53.160;6.990;2023-05-07T12:01:28;15.10;99.90
52621;DHT22;38515;53.160;6.990;2023-05-07T12:03:54;15.00;99.90
52621;DHT22;38515;53.160;6.990;2023-05-07T12:06:20;15.10;99.90
52621;DHT22;38515;53.160;6.990;2023-05-07T12:08:47;15.10;99.90
52621;DHT22;38515;53.160;6.990;2023-05-07T12:11:15;15.30;99.90
52621;DHT22;38515;53.160;6.990;2023-05-07T12:13:43;15.40;99.90
52621;DHT22;38515;53.160;6.990;2023-05-07T12:16:09;15.40;99.90
52621;DHT22;38515;53.160;6.990;2023-05-07T12:18:36;15.20;99.90
52621;DHT22;38515;53.160;6.990;2023-05-07T12:21:04;15.40;99.90
52621;DHT22;38515;53.160;6.990;2023-05-07T12:23:31;15.30;99.90
52621;DHT22;38515;53.160;6.990;2023-05-07T12:25:57;15.40;99.90
52621;DHT22;38515;53.160;6.990;2023-05-07T12:28:22;15.30;99.90
52621;DHT22;38515;53.160;6.990;2023-05-07T12:30:50;15.30;99.90
52621;DHT22;38515;53.160;6.990;2023-05-07T12:33:18;15.30;99.90
52621;DHT22;38515;53.160;6.990;2023-05-07T12:35:47;15.30;99.90
52621;DHT22;38515;53.160;6.990;2023-05-07T12:38:14;15.20;99.90
52621;DHT22;38515;53.160;6.990;2023-05-07T12:40:50;15.30;99.90
52621;DHT22;38515;53.160;6.990;2023-05-07T12:43:27;15.40;99.90
52621;DHT22;38515;53.160;6.990;2023-05-07T12:45:55;15.50;99.90
52621;DHT22;38515;53.160;6.990;2023-05-07T12:48:22;15.60;99.90
52621;DHT22;38515;53.160;6.990;2023-05-07T12:50:53;15.70;99.90
52621;DHT22;38515;53.160;6.990;2023-05-07T12:53:24;15.70;99.90
52621;DHT22;38515;53.160;6.990;2023-05-07T12:55:55;15.80;99.90
52621;DHT22;38515;53.160;6.990;2023-05-07T12:58:29;15.90;99.90
52621;DHT22;38515;53.160;6.990;2023-05-07T13:00:57;15.90;99.90
52621;DHT22;38515;53.160;6.990;2023-05-07T13:05:55;15.90;99.90
52621;DHT22;38515;53.160;6.990;2023-05-07T13:10:51;16.10;99.90
52621;DHT22;38515;53.160;6.990;2023-05-07T13:13:17;16.20;99.90
52621;DHT22;38515;53.160;6.990;2023-05-07T13:15:43;16.20;99.90
52621;DHT22;38515;53.160;6.990;2023-05-07T13:18:09;16.20;99.90
52621;DHT22;38515;53.160;6.990;2023-05-07T13:20:36;16.20;99.90
52621;DHT22;38515;53.160;6.990;2023-05-07T13:23:02;16.30;99.90
52621;DHT22;38515;53.160;6.990;2023-05-07T13:25:30;16.40;99.90
52621;DHT22;38515;53.160;6.990;2023-05-07T13:27:59;16.30;99.90
52621;DHT22;38515;53.160;6.990;2023-05-07T13:30:25;16.30;99.90
52621;DHT22;38515;53.160;6.990;2023-05-07T13:32:54;16.30;99.90
52621;DHT22;38515;53.160;6.990;2023-05-07T13:35:20;16.30;99.90
52621;DHT22;38515;53.160;6.990;2023-05-07T13:37:46;16.30;99.90
52621;DHT22;38515;53.160;6.990;2023-05-07T13:40:14;16.30;99.90
52621;DHT22;38515;53.160;6.990;2023-05-07T13:42:41;16.40;99.90
52621;DHT22;38515;53.160;6.990;2023-05-07T13:45:07;16.40;99.90
52621;DHT22;38515;53.160;6.990;2023-05-07T13:47:34;16.40;99.90
52621;DHT22;38515;53.160;6.990;2023-05-07T13:49:59;16.40;99.90
52621;DHT22;38515;53.160;6.990;2023-05-07T13:52:25;16.50;99.90
52621;DHT22;38515;53.160;6.990;2023-05-07T13:54:51;16.50;99.90
52621;DHT22;38515;53.160;6.990;2023-05-07T13:57:22;16.60;99.90
52621;DHT22;38515;53.160;6.990;2023-05-07T13:59:48;16.60;99.90
52621;DHT22;38515;53.160;6.990;2023-05-07T14:02:13;16.60;99.90
52621;DHT22;38515;53.160;6.990;2023-05-07T14:04:40;16.60;99.90
52621;DHT22;38515;53.160;6.990;2023-05-07T14:07:06;16.60;99.90
52621;DHT22;38515;53.160;6.990;2023-05-07T14:09:32;16.60;99.90
52621;DHT22;38515;53.160;6.990;2023-05-07T14:11:58;16.50;99.90
52621;DHT22;38515;53.160;6.990;2023-05-07T14:14:24;16.50;99.90
52621;DHT22;38515;53.160;6.990;2023-05-07T14:16:50;16.50;99.90
52621;DHT22;38515;53.160;6.990;2023-05-07T14:19:16;16.60;99.90
52621;DHT22;38515;53.160;6.990;2023-05-07T14:21:42;16.60;99.90
52621;DHT22;38515;53.160;6.990;2023-05-07T14:24:08;16.70;99.90
52621;DHT22;38515;53.160;6.990;2023-05-07T14:26:34;16.70;99.90
52621;DHT22;38515;53.160;6.990;2023-05-07T14:29:00;16.70;99.90
52621;DHT22;38515;53.160;6.990;2023-05-07T14:31:26;16.90;99.90
52621;DHT22;38515;53.160;6.990;2023-05-07T14:33:52;17.00;99.90
52621;DHT22;38515;53.160;6.990;2023-05-07T14:36:19;17.00;99.90
52621;DHT22;38515;53.160;6.990;2023-05-07T14:38:52;17.10;99.90
52621;DHT22;38515;53.160;6.990;2023-05-07T14:41:22;17.10;99.90
52621;DHT22;38515;53.160;6.990;2023-05-07T14:43:48;17.10;99.90
52621;DHT22;38515;53.160;6.990;2023-05-07T14:46:19;17.00;99.90
52621;DHT22;38515;53.160;6.990;2023-05-07T14:48:45;17.10;99.90
52621;DHT22;38515;53.160;6.990;2023-05-07T14:51:12;17.10;99.90
52621;DHT22;38515;53.160;6.990;2023-05-07T14:53:38;17.10;99.90
52621;DHT22;38515;53.160;6.990;2023-05-07T14:56:04;17.10;99.90
52621;DHT22;38515;53.160;6.990;2023-05-07T14:58:31;17.20;99.90
52621;DHT22;38515;53.160;6.990;2023-05-07T15:00:57;17.20;99.90
52621;DHT22;38515;53.160;6.990;2023-05-07T15:03:23;17.20;99.90
52621;DHT22;38515;53.160;6.990;2023-05-07T15:05:49;17.20;99.90
52621;DHT22;38515;53.160;6.990;2023-05-07T15:08:17;17.30;99.90
52621;DHT22;38515;53.160;6.990;2023-05-07T15:10:43;17.30;99.90
52621;DHT22;38515;53.160;6.990;2023-05-07T15:13:11;17.40;99.90
52621;DHT22;38515;53.160;6.990;2023-05-07T15:15:38;17.40;99.90
52621;DHT22;38515;53.160;6.990;2023-05-07T15:18:04;17.40;99.90
52621;DHT22;38515;53.160;6.990;2023-05-07T15:20:31;17.40;99.90
52621;DHT22;38515;53.160;6.990;2023-05-07T15:22:57;17.40;99.90
52621;DHT22;38515;53.160;6.990;2023-05-07T15:25:23;17.50;99.90
52621;DHT22;38515;53.160;6.990;2023-05-07T15:27:52;17.40;99.90
52621;DHT22;38515;53.160;6.990;2023-05-07T15:30:18;17.40;99.90
52621;DHT22;38515;53.160;6.990;2023-05-07T15:32:46;17.40;99.90
52621;DHT22;38515;53.160;6.990;2023-05-07T15:35:12;17.30;99.90
52621;DHT22;38515;53.160;6.990;2023-05-07T15:37:38;17.20;99.90
52621;DHT22;38515;53.160;6.990;2023-05-07T15:40:05;17.20;99.90
52621;DHT22;38515;53.160;6.990;2023-05-07T15:42:33;17.30;99.90
52621;DHT22;38515;53.160;6.990;2023-05-07T15:44:59;17.20;99.90
52621;DHT22;38515;53.160;6.990;2023-05-07T15:47:27;17.20;99.90
52621;DHT22;38515;53.160;6.990;2023-05-07T15:49:53;17.10;99.90